Time;durP1;ratioP1;P1;durP2;ratioP2;P2;SDS_P1;SDS_P2;PMS_P1;PMS_P2;Temp;Humidity;BMP_temperature;BMP_pressure;BME280_temperature;BME280_humidity;BME280_pressure;Samples;Min_cycle;Max_cycle;Signal;HPM_P1;HPM_P2
2021/12/02 00:02:21;;;;;;;21.20;13.80;;;;;;;3.10;66.35;97183.69;10295048;28;20061;-59
2021/12/02 00:07:20;;;;;;;32.38;18.02;;;;;;;2.96;66.83;97186.84;10295549;28;20068;-60
2021/12/02 00:12:19;;;;;;;29.08;17.13;;;;;;;2.92;66.56;97177.34;10294638;28;20480;-59
2021/12/02 00:17:26;;;;;;;23.98;14.45;;;;;;;2.86;67.08;97166.97;10294484;28;20434;-59
2021/12/02 00:22:27;;;;;;;54.55;33.70;;;;;;;2.69;67.77;97176.88;10294845;28;20061;-59
2021/12/02 00:27:28;;;;;;;31.45;18.48;;;;;;;2.75;67.46;97184.72;10290328;28;20061;-59
2021/12/02 00:32:29;;;;;;;31.77;19.50;;;;;;;2.67;67.14;97180.25;10294354;28;20068;-59
2021/12/02 00:37:30;;;;;;;43.58;20.65;;;;;;;2.54;67.87;97182.56;10293946;28;20476;-59
2021/12/02 00:42:31;;;;;;;34.75;17.98;;;;;;;2.10;67.58;97123.56;10293385;28;20069;-59
2021/12/02 00:47:33;;;;;;;31.73;17.23;;;;;;;2.33;68.22;97176.97;10294355;28;20084;-59
2021/12/02 00:52:32;;;;;;;19.90;10.15;;;;;;;2.29;68.86;97183.72;10293068;28;20107;-59
2021/12/02 00:57:32;;;;;;;7.40;2.42;;;;;;;2.85;65.73;97178.06;10289423;28;20072;-59
2021/12/02 01:02:34;;;;;;;23.65;11.82;;;;;;;3.39;65.00;97130.34;10292462;28;20470;-59
2021/12/02 01:07:33;;;;;;;18.60;9.95;;;;;;;3.65;64.39;97175.25;10293240;28;20065;-59
2021/12/02 01:12:35;;;;;;;8.48;4.05;;;;;;;3.46;64.53;97172.38;10292816;28;20069;-59
2021/12/02 01:17:34;;;;;;;19.10;8.32;;;;;;;3.44;64.65;97188.56;10293056;28;20072;-59
2021/12/02 01:22:36;;;;;;;7.93;3.17;;;;;;;3.28;64.59;97178.88;10292773;28;20099;-59
2021/12/02 01:27:36;;;;;;;12.63;6.78;;;;;;;3.31;64.88;97190.88;10292472;28;20147;-59
2021/12/02 01:32:39;;;;;;;13.60;6.72;;;;;;;3.11;64.96;97149.50;10288899;28;20061;-59
2021/12/02 01:37:39;;;;;;;12.65;6.47;;;;;;;3.12;65.61;97181.97;10291983;28;20064;-59
2021/12/02 01:42:40;;;;;;;12.73;6.05;;;;;;;2.68;65.56;97117.94;10292138;28;20061;-59
2021/12/02 01:47:46;;;;;;;12.32;5.57;;;;;;;2.59;65.83;97124.59;10292169;28;20065;-59
2021/12/02 01:52:54;;;;;;;29.35;16.77;;;;;;;2.72;66.07;97165.84;10291568;28;20081;-59
2021/12/02 01:58:00;;;;;;;23.27;12.52;;;;;;;2.74;66.40;97169.28;10291927;28;20066;-59
2021/12/02 02:03:04;;;;;;;15.05;7.93;;;;;;;2.82;65.98;97172.88;10287460;28;20065;-59
2021/12/02 02:08:22;;;;;;;19.08;8.55;;;;;;;2.84;65.87;97170.34;10291292;28;20490;-59
2021/12/02 02:13:21;;;;;;;16.88;8.55;;;;;;;2.75;66.41;97163.34;10291086;28;20062;-59
2021/12/02 02:18:21;;;;;;;12.05;6.57;;;;;;;2.59;66.83;97170.72;10291237;28;20072;-59
2021/12/02 02:23:21;;;;;;;10.90;5.43;;;;;;;2.56;66.58;97173.22;10290561;28;20065;-59
2021/12/02 02:28:20;;;;;;;13.98;7.07;;;;;;;2.46;66.79;97168.72;10291393;28;20065;-59
2021/12/02 02:33:20;;;;;;;18.90;10.00;;;;;;;2.41;67.13;97164.34;10287256;28;20065;-59
2021/12/02 02:38:20;;;;;;;9.50;4.80;;;;;;;2.34;67.66;97168.47;10290683;28;20072;-59
2021/12/02 02:43:23;;;;;;;10.63;5.78;;;;;;;2.31;67.76;97174.38;10290414;28;20506;-59
2021/12/02 02:48:22;;;;;;;14.80;8.75;;;;;;;2.17;68.30;97153.59;10290870;28;20061;-59
2021/12/02 02:53:24;;;;;;;58.15;25.63;;;;;;;2.10;67.95;97164.53;10290607;28;20049;-59
2021/12/02 02:59:00;;;;;;;27.70;12.93;;;;;;;1.99;68.53;97155.72;10290351;28;20069;-59
2021/12/02 03:09:00;;;;;;;10.35;5.60;;;;;;;2.01;68.28;97138.72;10290416;28;20092;-59
2021/12/02 03:14:07;;;;;;;7.55;4.35;;;;;;;2.05;68.04;97144.78;10289973;28;20069;-59
2021/12/02 03:19:06;;;;;;;13.27;6.03;;;;;;;2.02;68.49;97142.13;10289794;28;20068;-59
2021/12/02 03:24:06;;;;;;;14.40;7.65;;;;;;;1.99;68.41;97134.41;10293534;28;20034;-59
2021/12/02 03:29:06;;;;;;;11.77;5.00;;;;;;;1.82;68.42;97100.78;10297053;28;20069;-59
2021/12/02 03:34:07;;;;;;;14.18;6.63;;;;;;;2.02;68.37;97131.91;10292098;28;20764;-59
2021/12/02 03:39:08;;;;;;;15.10;6.30;;;;;;;2.10;67.86;97132.97;10296705;28;20068;-59
2021/12/02 03:44:08;;;;;;;10.55;5.65;;;;;;;2.13;67.49;97140.69;10296251;28;20632;-60
2021/12/02 03:49:07;;;;;;;9.73;4.88;;;;;;;2.04;67.76;97128.53;10295719;28;20526;-59
2021/12/02 03:54:06;;;;;;;;;;;;;;;2.06;68.05;97139.69;10297198;28;20093;-59
2021/12/02 03:59:05;;;;;;;9.07;4.00;;;;;;;2.03;67.82;97126.84;10295661;28;19979;-60
2021/12/02 04:04:04;;;;;;;8.65;4.35;;;;;;;2.09;67.84;97116.75;10292043;28;20100;-59
2021/12/02 04:09:23;;;;;;;9.02;5.05;;;;;;;2.10;67.30;97108.22;10295790;28;20061;-59
2021/12/02 04:14:29;;;;;;;14.18;7.38;;;;;;;2.16;66.99;97098.13;10295331;28;20057;-59
2021/12/02 04:19:29;;;;;;;13.68;5.97;;;;;;;2.32;66.69;97101.84;10295099;28;20115;-59
2021/12/02 04:24:28;;;;;;;12.80;6.85;;;;;;;2.41;66.25;97101.19;10293870;28;20380;-59
2021/12/02 04:29:27;;;;;;;30.75;16.67;;;;;;;2.26;66.45;97088.94;10294777;28;20384;-59
2021/12/02 04:34:26;;;;;;;16.60;10.13;;;;;;;2.21;66.37;97058.94;10292708;28;20065;-59
2021/12/02 04:39:25;;;;;;;20.88;12.93;;;;;;;2.42;66.17;97100.38;10294447;28;20077;-59
2021/12/02 04:44:24;;;;;;;22.10;13.30;;;;;;;2.35;66.45;97093.41;10293710;28;20040;-59
2021/12/02 04:49:23;;;;;;;21.95;12.60;;;;;;;2.33;66.63;97090.78;10290219;28;20046;-59
2021/12/02 04:54:22;;;;;;;22.05;11.57;;;;;;;2.32;66.12;97083.06;10293740;28;20057;-59
2021/12/02 04:59:21;;;;;;;17.27;11.05;;;;;;;2.30;66.47;97079.59;10293839;28;20400;-59
2021/12/02 05:04:20;;;;;;;19.98;10.88;;;;;;;2.10;66.62;97051.06;10293547;28;20037;-59
2021/12/02 05:09:19;;;;;;;18.25;9.85;;;;;;;2.03;66.92;97060.28;10293187;28;20099;-59
2021/12/02 05:14:18;;;;;;;20.73;11.63;;;;;;;2.02;66.36;97058.59;10293506;28;20123;-59
2021/12/02 05:19:17;;;;;;;23.90;11.82;;;;;;;1.94;66.83;97052.44;10289269;28;20034;-59
2021/12/02 05:24:16;;;;;;;28.30;16.75;;;;;;;1.96;67.10;97053.31;10292201;28;20487;-59
2021/12/02 05:29:15;;;;;;;21.17;12.70;;;;;;;1.77;67.09;97030.75;10291474;28;20072;-59
2021/12/02 05:34:14;;;;;;;38.97;21.80;;;;;;;1.95;67.34;97062.69;10293193;28;20029;-59
2021/12/02 05:39:13;;;;;;;31.73;19.63;;;;;;;1.97;67.01;97067.84;10332529;28;20037;-59
2021/12/02 05:44:12;;;;;;;37.75;22.13;;;;;;;1.90;67.42;97063.41;10305430;28;20044;-59
2021/12/02 05:49:11;;;;;;;31.67;19.48;;;;;;;1.89;67.41;97056.59;10286977;28;20490;-59
2021/12/02 05:54:10;;;;;;;33.55;19.10;;;;;;;1.89;67.41;97051.47;10291732;28;20417;-59
2021/12/02 05:59:09;;;;;;;;;;;;;;;1.90;67.88;97048.94;10287228;28;20069;-59
2021/12/02 06:04:10;;;;;;;37.75;20.80;;;;;;;1.53;67.65;96980.78;10289429;28;20322;-59
2021/12/02 06:09:09;;;;;;;69.07;40.55;;;;;;;1.77;68.52;97062.28;10296709;28;20537;-60
2021/12/02 06:14:08;;;;;;;64.88;41.30;;;;;;;1.65;68.32;97039.88;10290406;28;20068;-59
2021/12/02 06:19:08;;;;;;;99.90;55.30;;;;;;;1.80;68.30;97061.50;10219425;28;20069;-59
2021/12/02 06:24:08;;;;;;;89.10;50.65;;;;;;;1.63;68.43;97044.09;10290774;28;20068;-59
2021/12/02 06:29:07;;;;;;;71.82;45.22;;;;;;;1.84;68.72;97083.75;10291079;28;20062;-59
2021/12/02 06:34:07;;;;;;;65.65;38.80;;;;;;;1.62;68.98;97039.81;10285798;28;20061;-59
2021/12/02 06:39:06;;;;;;;72.32;41.25;;;;;;;1.95;69.20;97077.19;10273503;28;20069;-60
2021/12/02 06:44:05;;;;;;;;;;;;;;;1.94;69.17;97090.81;10280513;28;20476;-60
2021/12/02 06:49:04;;;;;;;46.60;28.25;;;;;;;1.65;69.14;97018.56;10288830;28;19956;-59
2021/12/02 06:54:04;;;;;;;34.78;23.33;;;;;;;1.81;68.27;97010.38;10290259;28;20509;-59
2021/12/02 06:59:03;;;;;;;70.10;45.75;;;;;;;2.33;67.98;97072.00;10273087;28;20503;-60
2021/12/02 07:04:02;;;;;;;82.90;48.95;;;;;;;2.51;68.10;97067.25;10297175;28;20044;-59
2021/12/02 07:09:01;;;;;;;119.63;70.15;;;;;;;2.66;67.45;97053.88;10278043;28;20061;-59
2021/12/02 07:14:04;;;;;;;96.35;59.78;;;;;;;2.91;67.70;97057.75;10268052;28;20065;-59
2021/12/02 07:19:08;;;;;;;85.22;53.35;;;;;;;3.19;66.65;97051.41;10255517;28;20062;-59
2021/12/02 07:24:09;;;;;;;55.13;35.55;;;;;;;3.58;66.07;97049.44;10256561;28;20053;-59
2021/12/02 07:29:13;;;;;;;33.65;20.95;;;;;;;3.77;64.57;97009.50;10286935;28;20093;-59
2021/12/02 07:34:12;;;;;;;85.82;57.33;;;;;;;4.23;63.17;97007.53;10296538;28;20065;-59
2021/12/02 07:39:11;;;;;;;43.20;30.52;;;;;;;4.97;60.02;97042.63;10294922;28;20061;-59
2021/12/02 07:44:11;;;;;;;52.60;39.17;;;;;;;5.52;60.93;97039.63;10284745;28;20034;-59
2021/12/02 07:49:14;;;;;;;52.67;35.58;;;;;;;5.61;60.53;96995.94;10289781;28;20077;-59
2021/12/02 07:54:17;;;;;;;32.90;24.92;;;;;;;6.20;59.62;97033.16;10295978;28;20482;-59
2021/12/02 07:59:16;;;;;;;6.53;3.83;;;;;;;6.63;56.39;97017.84;10295490;28;20057;-59
2021/12/02 08:04:15;;;;;;;7.05;3.40;;;;;;;7.06;55.40;97017.94;10295612;28;20465;-59
2021/12/02 08:09:15;;;;;;;7.10;2.53;;;;;;;7.47;53.04;97021.44;10284321;28;20577;-60
2021/12/02 08:14:16;;;;;;;6.72;2.45;;;;;;;7.87;51.33;97017.94;10294827;28;20073;-59
2021/12/02 08:19:15;;;;;;;4.13;2.35;;;;;;;8.19;49.14;97035.06;10294479;28;20519;-59
2021/12/02 08:24:14;;;;;;;5.03;2.72;;;;;;;8.46;49.20;97026.34;10290925;28;20053;-60
2021/12/02 08:29:13;;;;;;;3.63;2.28;;;;;;;8.74;47.32;97031.41;10294431;28;20056;-59
2021/12/02 08:34:12;;;;;;;9.57;2.40;;;;;;;8.93;46.67;97025.25;10293435;28;20034;-59
2021/12/02 08:39:17;;;;;;;4.32;2.08;;;;;;;9.11;45.58;97015.63;10293225;28;20079;-60
2021/12/02 08:44:17;;;;;;;7.72;2.83;;;;;;;9.29;45.10;97033.66;10292574;28;20065;-59
2021/12/02 08:49:17;;;;;;;4.15;2.15;;;;;;;9.43;44.96;97036.13;10293601;28;20085;-60
2021/12/02 08:54:17;;;;;;;3.33;2.13;;;;;;;9.61;44.73;97027.34;10282408;28;20065;-60
2021/12/02 08:59:17;;;;;;;5.63;2.40;;;;;;;9.71;43.78;97025.53;10292929;28;20065;-60
2021/12/02 09:04:16;;;;;;;3.88;1.90;;;;;;;9.87;43.50;97005.53;10282630;28;20057;-59
2021/12/02 09:09:15;;;;;;;4.40;1.85;;;;;;;9.97;42.99;97013.16;10290080;28;20498;-59
2021/12/02 09:14:14;;;;;;;6.18;2.45;;;;;;;10.08;43.43;97002.69;10292232;28;20276;-59
2021/12/02 09:19:13;;;;;;;4.68;2.40;;;;;;;9.67;42.34;96896.91;10289946;28;20029;-59
2021/12/02 09:24:18;;;;;;;12.18;5.32;;;;;;;10.29;41.94;96987.78;10286910;28;20047;-59
2021/12/02 09:29:19;;;;;;;7.07;3.42;;;;;;;10.37;40.95;96963.44;10290433;28;20049;-59
2021/12/02 09:34:18;;;;;;;9.95;4.30;;;;;;;10.62;40.94;96955.34;10292107;28;20880;-57
2021/12/02 09:39:17;;;;;;;3.78;2.20;;;;;;;10.79;39.89;96949.91;10289385;28;20122;-57
2021/12/02 09:44:16;;;;;;;5.03;2.03;;;;;;;10.76;40.65;96953.41;10290903;28;20492;-57
2021/12/02 09:49:16;;;;;;;4.97;2.00;;;;;;;10.89;40.15;96948.91;10291958;28;20077;-59
2021/12/02 09:54:21;;;;;;;5.22;2.30;;;;;;;10.98;40.56;96934.94;10287945;28;20061;-57
2021/12/02 09:59:25;;;;;;;4.63;2.50;;;;;;;10.99;40.62;96923.69;10291571;28;20064;-57
2021/12/02 10:04:26;;;;;;;3.28;2.10;;;;;;;10.95;40.10;96935.00;10289972;28;20065;-57
2021/12/02 10:09:39;;;;;;;6.07;2.50;;;;;;;10.77;41.03;96908.38;10289687;28;20455;-57
2021/12/02 10:14:39;;;;;;;5.95;2.30;;;;;;;10.93;40.35;96932.41;10251077;28;20058;-57
2021/12/02 10:25:32;;;;;;;7.10;3.22;;;;;;;11.11;40.75;96918.28;10283931;28;20068;-57
2021/12/02 10:30:31;;;;;;;6.47;2.70;;;;;;;11.09;40.50;96901.88;10281825;28;20057;-57
2021/12/02 10:35:47;;;;;;;4.03;2.40;;;;;;;11.13;40.82;96900.94;10299235;28;20506;-57
2021/12/02 10:40:58;;;;;;;3.67;1.98;;;;;;;10.64;40.52;96790.13;10297498;28;20068;-57
2021/12/02 10:46:18;;;;;;;5.32;2.38;;;;;;;11.32;40.95;96893.69;10298894;28;20056;-57
2021/12/02 10:51:54;;;;;;;4.25;2.03;;;;;;;11.30;40.78;96885.06;10298696;28;20538;-57
2021/12/02 10:56:59;;;;;;;4.03;2.17;;;;;;;11.37;40.48;96867.63;10228139;28;20065;-59
2021/12/02 11:02:04;;;;;;;4.88;2.38;;;;;;;11.50;40.43;96863.91;10297928;28;20061;-59
2021/12/02 11:07:09;;;;;;;5.60;2.95;;;;;;;11.58;39.78;96861.19;10297773;28;20050;-57
2021/12/02 11:12:21;;;;;;;4.40;2.35;;;;;;;11.60;40.54;96856.81;10297428;28;20499;-60
2021/12/02 11:17:21;;;;;;;5.25;3.20;;;;;;;11.63;40.25;96851.53;10296699;28;20081;-57
2021/12/02 11:22:21;;;;;;;5.35;2.53;;;;;;;11.68;39.76;96847.94;10297353;28;20068;-58
2021/12/02 11:27:36;;;;;;;12.77;4.13;;;;;;;11.73;39.83;96842.66;10294144;28;20065;-57
2021/12/02 11:32:35;;;;;;;6.82;2.75;;;;;;;11.82;40.10;96834.69;10297082;28;20068;-57
2021/12/02 11:37:36;;;;;;;8.30;2.80;;;;;;;11.92;40.22;96837.09;10295194;28;20044;-57
2021/12/02 11:42:38;;;;;;;8.82;2.88;;;;;;;11.91;40.11;96830.19;10295177;28;20094;-57
2021/12/02 11:47:37;;;;;;;4.13;2.33;;;;;;;11.80;39.02;96807.84;10296589;28;20499;-57
2021/12/02 11:52:39;;;;;;;6.43;3.50;;;;;;;11.94;38.96;96819.72;10295854;28;20082;-57
2021/12/02 11:57:38;;;;;;;9.55;2.88;;;;;;;12.05;39.60;96829.00;10291542;28;20140;-57
2021/12/02 12:02:49;;;;;;;4.97;3.13;;;;;;;11.75;38.89;96764.66;10296452;28;20476;-57
2021/12/02 12:07:49;;;;;;;7.38;4.13;;;;;;;12.05;39.70;96813.41;10295311;28;20488;-58
2021/12/02 12:12:50;;;;;;;6.90;3.70;;;;;;;12.09;39.21;96793.41;10295087;28;20065;-57
2021/12/02 12:17:49;;;;;;;6.35;3.25;;;;;;;12.23;39.78;96799.13;10295388;28;20061;-57
2021/12/02 12:22:47;;;;;;;4.28;2.90;;;;;;;12.36;39.96;96801.47;10294816;28;20033;-57
2021/12/02 12:27:57;;;;;;;5.10;2.78;;;;;;;12.42;39.54;96796.13;10291601;28;20507;-57
2021/12/02 12:33:13;;;;;;;3.88;2.40;;;;;;;12.39;38.80;96796.19;10294419;28;20091;-57
2021/12/02 12:38:27;;;;;;;4.28;1.92;;;;;;;12.44;39.11;96800.41;10293726;28;20499;-58
2021/12/02 12:43:33;;;;;;;5.82;2.88;;;;;;;12.40;39.42;96797.91;10291185;28;20068;-57
2021/12/02 12:48:33;;;;;;;4.82;2.40;;;;;;;12.30;39.59;96792.94;10286553;28;20100;-57
2021/12/02 12:53:31;;;;;;;;;;;;;;;12.22;39.82;96784.41;10292168;28;20080;-57
2021/12/02 12:58:36;;;;;;;3.08;2.10;;;;;;;12.08;40.11;96782.09;10282356;28;19921;-57
2021/12/02 13:03:44;;;;;;;7.47;3.10;;;;;;;11.88;40.71;96768.72;10290656;28;20072;-57
2021/12/02 13:08:58;;;;;;;4.50;2.63;;;;;;;11.87;40.62;96773.03;10289221;28;20057;-57
2021/12/02 13:14:03;;;;;;;6.25;2.70;;;;;;;11.71;41.02;96770.81;10293419;28;20140;-57
2021/12/02 13:19:15;;;;;;;5.97;2.65;;;;;;;11.33;41.25;96703.19;10291892;28;20069;-57
2021/12/02 13:24:19;;;;;;;5.53;3.00;;;;;;;11.80;41.13;96771.47;10291206;28;20499;-58
2021/12/02 13:29:21;;;;;;;8.52;3.30;;;;;;;11.85;40.60;96785.25;10286557;28;20059;-57
2021/12/02 13:34:22;;;;;;;4.50;2.35;;;;;;;11.77;39.77;96784.53;10292140;28;20476;-57
2021/12/02 13:39:30;;;;;;;2.53;2.00;;;;;;;11.48;39.98;96733.19;10290651;28;20480;-57
2021/12/02 13:44:33;;;;;;;3.95;2.05;;;;;;;11.88;40.33;96789.53;10291657;28;20072;-57
2021/12/02 13:49:41;;;;;;;4.53;2.10;;;;;;;11.68;39.89;96787.34;10292137;28;20077;-58
2021/12/02 13:54:45;;;;;;;3.97;2.53;;;;;;;11.69;41.13;96783.88;10291581;28;20065;-57
2021/12/02 13:59:44;;;;;;;4.53;2.15;;;;;;;11.61;40.60;96776.19;10290925;28;20455;-57
2021/12/02 14:04:46;;;;;;;5.40;3.00;;;;;;;11.54;40.44;96763.38;10287938;28;20057;-57
2021/12/02 14:09:51;;;;;;;6.93;3.10;;;;;;;11.49;41.68;96755.69;10288220;28;20521;-58
2021/12/02 14:14:58;;;;;;;6.90;2.70;;;;;;;11.28;41.92;96745.72;10289700;28;20077;-58
2021/12/02 14:19:59;;;;;;;3.47;2.33;;;;;;;11.06;42.48;96732.28;10290577;28;20475;-58
2021/12/02 14:24:58;;;;;;;8.00;3.67;;;;;;;10.88;42.37;96738.72;10290220;28;20062;-58
2021/12/02 14:30:17;;;;;;;6.57;3.78;;;;;;;10.59;43.14;96740.06;10290957;28;20066;-58
2021/12/02 14:35:19;;;;;;;9.13;3.70;;;;;;;10.39;43.71;96735.19;10287765;28;20507;-58
2021/12/02 14:40:46;;;;;;;5.90;2.78;;;;;;;10.17;44.37;96732.13;10290233;28;20061;-58
2021/12/02 14:45:46;;;;;;;5.25;2.90;;;;;;;9.98;44.67;96732.41;10290546;28;20061;-58
2021/12/02 14:50:57;;;;;;;7.47;3.50;;;;;;;9.76;45.18;96724.06;10290821;28;20084;-58
2021/12/02 14:55:58;;;;;;;7.68;3.63;;;;;;;9.70;45.59;96736.25;10288000;28;20065;-58
2021/12/02 15:01:10;;;;;;;8.43;4.55;;;;;;;9.62;45.80;96733.75;10290042;28;20053;-58
2021/12/02 15:06:09;;;;;;;6.50;3.30;;;;;;;9.62;44.70;96732.91;10286966;28;20598;-58
2021/12/02 15:11:08;;;;;;;;;;;;;;;9.65;44.87;96751.88;10290378;28;20476;-58
2021/12/02 15:16:07;;;;;;;20.85;12.13;;;;;;;9.65;44.87;96757.06;10289558;28;20441;-58
2021/12/02 15:21:08;;;;;;;7.82;4.53;;;;;;;9.63;45.73;96750.16;10297626;28;20061;-58
2021/12/02 15:26:13;;;;;;;8.65;3.80;;;;;;;9.16;45.68;96685.16;10296960;28;20088;-58
2021/12/02 15:31:19;;;;;;;6.88;3.40;;;;;;;9.46;45.19;96742.63;10296660;28;20112;-58
2021/12/02 15:36:20;;;;;;;9.20;4.47;;;;;;;9.44;45.41;96729.72;10291287;28;20129;-58
2021/12/02 15:41:22;;;;;;;8.95;4.50;;;;;;;9.43;45.71;96732.31;10296217;28;20072;-58
2021/12/02 15:46:28;;;;;;;10.73;4.45;;;;;;;9.07;46.10;96693.03;10295034;28;20065;-58
2021/12/02 15:51:28;;;;;;;5.55;3.28;;;;;;;8.61;46.47;96641.81;10295296;28;20073;-58
2021/12/02 15:56:27;;;;;;;6.70;3.63;;;;;;;9.11;47.08;96730.94;10293924;28;20100;-58
2021/12/02 16:01:34;;;;;;;5.75;2.35;;;;;;;9.13;46.75;96749.88;10294339;28;20104;-58
2021/12/02 16:06:40;;;;;;;5.22;3.08;;;;;;;9.14;46.72;96742.13;10290140;28;20471;-58
2021/12/02 16:11:45;;;;;;;7.47;3.00;;;;;;;9.17;46.85;96738.63;10294643;28;20122;-58
2021/12/02 16:16:44;;;;;;;8.18;3.78;;;;;;;9.18;47.00;96737.75;10294094;28;20579;-58
2021/12/02 16:21:43;;;;;;;6.25;3.30;;;;;;;9.13;46.93;96736.94;10293952;28;20518;-58
2021/12/02 16:26:42;;;;;;;6.68;3.60;;;;;;;9.04;47.41;96731.88;10295261;28;20030;-60
2021/12/02 16:31:41;;;;;;;6.22;2.50;;;;;;;9.00;47.38;96737.97;10292888;28;20033;-58
2021/12/02 16:36:40;;;;;;;4.05;2.30;;;;;;;9.06;47.45;96749.09;10291007;28;20033;-58
2021/12/02 16:41:39;;;;;;;5.45;2.50;;;;;;;9.17;46.96;96761.06;10294006;28;20040;-58
2021/12/02 16:46:38;;;;;;;15.88;8.93;;;;;;;9.22;46.70;96754.97;10294564;28;20092;-58
2021/12/02 16:51:37;;;;;;;8.65;5.28;;;;;;;9.23;46.79;96748.03;10293750;28;20084;-58
2021/12/02 16:56:36;;;;;;;9.10;5.35;;;;;;;9.14;46.66;96720.56;10293492;28;20070;-58
2021/12/02 17:01:35;;;;;;;8.63;5.25;;;;;;;9.25;46.64;96749.72;10292123;28;20057;-58
2021/12/02 17:06:34;;;;;;;10.05;6.68;;;;;;;9.17;47.45;96756.75;10289561;28;20061;-58
2021/12/02 17:11:33;;;;;;;23.70;14.90;;;;;;;8.65;46.72;96697.81;10293074;28;20058;-58
2021/12/02 17:16:32;;;;;;;29.55;17.83;;;;;;;9.03;47.37;96769.00;10290781;28;20065;-58
2021/12/02 17:21:31;;;;;;;40.13;26.23;;;;;;;8.85;48.20;96754.50;10292808;28;20021;-58
2021/12/02 17:26:30;;;;;;;6.85;2.80;;;;;;;8.43;49.17;96700.59;10293150;28;20041;-58
2021/12/02 17:31:30;;;;;;;18.10;12.80;;;;;;;8.91;48.54;96739.78;10292365;28;20057;-58
2021/12/02 17:36:29;;;;;;;8.70;5.07;;;;;;;8.89;48.49;96738.94;10287590;28;20064;-58
2021/12/02 17:41:28;;;;;;;4.40;2.40;;;;;;;9.00;47.85;96731.06;10279248;28;20069;-58
2021/12/02 17:46:29;;;;;;;4.13;2.83;;;;;;;8.85;48.17;96700.19;10287160;28;20084;-58
2021/12/02 17:51:28;;;;;;;5.80;2.92;;;;;;;8.96;48.63;96728.53;10290730;28;20352;-58
2021/12/02 17:56:27;;;;;;;6.43;2.80;;;;;;;9.03;48.67;96712.06;10289607;28;20491;-58
2021/12/02 18:01:26;;;;;;;4.97;3.63;;;;;;;9.08;48.71;96720.63;10284860;28;20482;-58
2021/12/02 18:06:25;;;;;;;8.05;3.22;;;;;;;9.10;48.08;96704.19;10293020;28;20570;-58
2021/12/02 18:11:25;;;;;;;7.93;3.10;;;;;;;9.15;48.37;96709.31;10293528;28;20021;-58
2021/12/02 18:16:24;;;;;;;5.65;3.20;;;;;;;9.19;48.22;96721.34;10291661;28;20687;-58
2021/12/02 18:21:23;;;;;;;5.25;2.50;;;;;;;9.20;47.99;96730.81;10292838;28;20663;-58
2021/12/02 18:26:22;;;;;;;;;;;;;;;9.29;48.27;96741.09;10291998;28;20058;-58
2021/12/02 18:31:21;;;;;;;5.30;3.05;;;;;;;9.31;47.85;96735.91;10290793;28;19940;-58
2021/12/02 18:36:20;;;;;;;4.32;2.33;;;;;;;9.45;47.06;96743.50;10291613;28;20057;-58
2021/12/02 18:41:23;;;;;;;3.08;2.67;;;;;;;9.49;46.79;96747.78;10292225;28;20058;-58
2021/12/02 18:46:24;;;;;;;5.15;3.55;;;;;;;9.49;46.57;96753.81;10292817;28;20065;-58
2021/12/02 18:51:23;;;;;;;5.68;3.58;;;;;;;9.41;46.82;96747.84;10291845;28;20073;-58
2021/12/02 18:56:22;;;;;;;5.22;3.17;;;;;;;9.29;47.18;96730.75;10300901;28;20065;-58
2021/12/02 19:01:22;;;;;;;4.57;3.35;;;;;;;9.16;47.62;96721.41;10297012;28;20038;-58
2021/12/02 19:06:28;;;;;;;4.53;3.03;;;;;;;9.10;47.32;96727.47;10297835;28;20485;-58
2021/12/02 19:27:20;;;;;;;5.85;3.65;;;;;;;8.62;48.45;96674.56;10299443;28;20053;-58
2021/12/02 19:32:19;;;;;;;7.53;4.03;;;;;;;8.58;48.80;96680.66;10298473;28;20088;-58
2021/12/02 19:37:18;;;;;;;6.00;3.72;;;;;;;8.42;49.41;96685.97;10296986;28;20058;-58
2021/12/02 19:42:17;;;;;;;7.18;4.28;;;;;;;8.65;49.38;96713.34;10298977;28;20065;-58
2021/12/02 19:47:18;;;;;;;6.13;3.45;;;;;;;8.60;49.41;96702.16;10298365;28;20022;-58
2021/12/02 19:52:17;;;;;;;5.90;3.60;;;;;;;8.55;49.68;96693.59;10295275;28;20520;-58
2021/12/02 19:57:18;;;;;;;5.07;3.05;;;;;;;8.52;49.59;96697.91;10298306;28;20064;-58
2021/12/02 20:02:17;;;;;;;6.15;3.65;;;;;;;8.56;49.42;96670.31;10297084;28;20053;-58
2021/12/02 20:07:16;;;;;;;4.97;3.15;;;;;;;8.20;49.22;96600.03;10295833;28;20053;-58
2021/12/02 20:12:15;;;;;;;4.90;3.30;;;;;;;8.60;49.40;96659.06;10297676;28;20057;-58
2021/12/02 20:17:21;;;;;;;4.78;2.83;;;;;;;8.63;49.22;96645.25;10296201;28;20076;-58
2021/12/02 20:22:20;;;;;;;3.83;2.63;;;;;;;8.70;49.32;96639.13;10293690;28;20060;-58
2021/12/02 20:27:20;;;;;;;4.15;2.75;;;;;;;8.76;49.14;96620.94;10295538;28;20029;-58
2021/12/02 20:32:19;;;;;;;4.40;3.08;;;;;;;8.85;48.85;96622.56;10296637;28;20072;-58
2021/12/02 20:37:18;;;;;;;;;;;;;;;8.83;48.85;96622.59;10294238;28;20056;-58
2021/12/02 20:42:18;;;;;;;7.90;3.22;;;;;;;8.87;48.54;96623.41;10296226;28;20000;-58
2021/12/02 20:47:29;;;;;;;4.45;2.70;;;;;;;8.82;48.60;96607.94;10295470;28;20061;-58
2021/12/02 20:52:30;;;;;;;4.32;2.75;;;;;;;8.93;48.30;96608.66;10290312;28;20073;-58
2021/12/02 20:57:30;;;;;;;3.47;2.55;;;;;;;8.98;48.46;96594.81;10294394;28;20097;-58
2021/12/02 21:02:32;;;;;;;6.07;3.00;;;;;;;8.94;48.26;96584.50;10295553;28;20076;-58
2021/12/02 21:07:31;;;;;;;6.03;2.78;;;;;;;8.86;48.32;96567.38;10294913;28;20499;-58
2021/12/02 21:12:32;;;;;;;4.30;2.35;;;;;;;8.86;48.28;96581.16;10295314;28;20642;-58
2021/12/02 21:17:31;;;;;;;3.05;2.35;;;;;;;8.91;48.37;96594.03;10293001;28;20073;-58
2021/12/02 21:22:30;;;;;;;4.40;2.90;;;;;;;8.43;48.18;96511.88;10290711;28;20101;-58
2021/12/02 21:27:29;;;;;;;6.70;3.13;;;;;;;8.77;47.87;96570.94;10299490;28;20064;-58
2021/12/02 21:32:31;;;;;;;5.38;2.97;;;;;;;9.10;47.89;96605.00;10264892;28;20077;-58
2021/12/02 21:37:39;;;;;;;3.90;2.30;;;;;;;8.71;47.74;96530.47;10294064;28;20068;-58
2021/12/02 21:42:40;;;;;;;7.95;4.25;;;;;;;9.20;47.24;96579.84;10294426;28;20057;-58
2021/12/02 21:47:39;;;;;;;11.48;6.40;;;;;;;8.90;47.15;96540.56;10292321;28;20058;-58
2021/12/02 21:52:39;;;;;;;8.32;4.43;;;;;;;9.12;47.23;96570.47;10293387;28;20081;-58
2021/12/02 21:57:41;;;;;;;3.58;2.65;;;;;;;9.14;47.14;96568.72;10293952;28;20072;-58
2021/12/02 22:02:43;;;;;;;30.00;17.75;;;;;;;9.03;47.30;96573.16;10291519;28;20061;-58
2021/12/02 22:07:43;;;;;;;11.50;6.43;;;;;;;9.06;47.26;96583.47;10294038;28;20104;-58
2021/12/02 22:12:44;;;;;;;19.30;10.27;;;;;;;9.04;48.18;96579.19;10289551;28;20068;-58
2021/12/02 22:17:44;;;;;;;4.80;2.50;;;;;;;8.90;48.75;96577.66;10293675;28;20069;-58
2021/12/02 22:22:44;;;;;;;6.65;2.40;;;;;;;9.06;48.85;96561.91;10293130;28;20114;-58
2021/12/02 22:27:44;;;;;;;5.18;2.38;;;;;;;9.29;47.81;96553.84;10295086;28;20053;-58
2021/12/02 22:32:44;;;;;;;4.38;2.58;;;;;;;9.37;47.93;96533.00;10301902;28;20066;-58
2021/12/02 22:37:44;;;;;;;3.22;2.33;;;;;;;9.25;47.80;96511.59;10301235;28;20456;-58
2021/12/02 22:42:47;;;;;;;4.50;2.28;;;;;;;9.68;48.40;96557.53;10298000;28;20049;-58
2021/12/02 22:47:46;;;;;;;3.80;2.30;;;;;;;9.89;47.92;96555.47;10300332;28;20064;-58
2021/12/02 22:52:47;;;;;;;4.70;2.35;;;;;;;9.96;46.85;96523.38;10299545;28;20569;-58
2021/12/02 22:57:48;;;;;;;4.53;2.08;;;;;;;10.27;46.90;96546.13;10299340;28;20504;-59
2021/12/02 23:02:47;;;;;;;3.10;1.95;;;;;;;10.33;46.22;96551.19;10300741;28;20089;-58
2021/12/02 23:07:46;;;;;;;4.20;2.50;;;;;;;10.39;46.06;96548.47;10299307;28;20061;-58
2021/12/02 23:12:46;;;;;;;4.43;2.38;;;;;;;10.40;45.69;96542.41;10298248;28;20065;-58
2021/12/02 23:17:45;;;;;;;2.97;2.20;;;;;;;10.35;45.47;96554.59;10295156;28;20125;-58
2021/12/02 23:22:45;;;;;;;5.05;2.70;;;;;;;10.24;45.90;96567.78;10298618;28;20061;-58
2021/12/02 23:28:09;;;;;;;5.22;2.80;;;;;;;10.17;45.62;96561.88;10297469;28;20088;-58
2021/12/02 23:33:12;;;;;;;4.57;2.90;;;;;;;10.03;46.08;96569.03;10299299;28;20522;-58
2021/12/02 23:38:11;;;;;;;5.05;2.95;;;;;;;9.84;45.76;96571.09;10296356;28;20073;-58
2021/12/02 23:43:10;;;;;;;;;;;;;;;9.20;46.23;96490.09;10298988;28;20065;-58
2021/12/02 23:48:09;;;;;;;3.88;2.67;;;;;;;9.56;46.32;96568.13;10295379;28;19992;-58
2021/12/02 23:53:09;;;;;;;6.68;2.50;;;;;;;9.47;46.36;96552.72;10297381;28;20088;-58
2021/12/02 23:58:09;;;;;;;3.95;2.70;;;;;;;9.08;46.80;96487.72;10297908;28;20172;-58
